Time;durP1;ratioP1;P1;durP2;ratioP2;P2;SDS_P1;SDS_P2;PMS_P1;PMS_P2;Temp;Humidity;BMP_temperature;BMP_pressure;BME280_temperature;BME280_humidity;BME280_pressure;Samples;Min_cycle;Max_cycle;Signal;HPM_P1;HPM_P2
2023/11/30 00:00:05;;;;;;;;;22.75;16.50;;;;;;;;5058838;28;45431;-68
2023/11/30 00:02:32;;;;;;;;;22.00;19.00;;;;;;;;5058733;28;45578;-70
2023/11/30 00:04:57;;;;;;;;;19.25;18.00;;;;;;;;5056847;28;45542;-70
2023/11/30 00:07:22;;;;;;;;;17.67;14.67;;;;;;;;5059977;28;47560;-69
2023/11/30 00:09:47;;;;;;;;;21.33;21.33;;;;;;;;5061052;28;45539;-68
2023/11/30 00:12:12;;;;;;;;;22.00;16.67;;;;;;;;5056241;28;45695;-70
2023/11/30 00:14:37;;;;;;;;;21.33;20.00;;;;;;;;5039855;28;45295;-68
2023/11/30 00:17:03;;;;;;;;;17.75;12.75;;;;;;;;5050208;28;46910;-68
2023/11/30 00:19:28;;;;;;;;;26.25;22.50;;;;;;;;5057326;28;45497;-69
2023/11/30 00:21:54;;;;;;;;;22.25;20.75;;;;;;;;5056988;28;45234;-70
2023/11/30 00:24:19;;;;;;;;;27.67;22.00;;;;;;;;5057348;28;45548;-67
2023/11/30 00:26:44;;;;;;;;;24.00;21.33;;;;;;;;5056687;28;45364;-68
2023/11/30 00:29:09;;;;;;;;;25.75;22.50;;;;;;;;5052150;28;45442;-68
2023/11/30 00:31:34;;;;;;;;;17.33;17.33;;;;;;;;5058318;28;45442;-67
2023/11/30 00:33:59;;;;;;;;;22.00;18.33;;;;;;;;5057175;28;45347;-68
2023/11/30 00:36:25;;;;;;;;;26.67;21.00;;;;;;;;5056279;28;45302;-69
2023/11/30 00:38:50;;;;;;;;;21.25;19.25;;;;;;;;5056612;28;45379;-70
2023/11/30 00:41:15;;;;;;;;;29.00;19.33;;;;;;;;5056457;28;45334;-67
2023/11/30 00:43:41;;;;;;;;;26.75;23.25;;;;;;;;5071727;28;45450;-68
2023/11/30 00:46:08;;;;;;;;;25.50;20.50;;;;;;;;5084469;27;47394;-68
2023/11/30 00:48:34;;;;;;;;;23.25;21.25;;;;;;;;5082086;27;45339;-68
2023/11/30 00:50:59;;;;;;;;;26.67;23.67;;;;;;;;5079078;27;45343;-68
2023/11/30 00:53:24;;;;;;;;;27.00;23.25;;;;;;;;5076960;27;45675;-68
2023/11/30 00:55:49;;;;;;;;;29.33;26.33;;;;;;;;5076943;28;45636;-68
2023/11/30 00:58:14;;;;;;;;;22.00;21.00;;;;;;;;5080514;27;45201;-69
2023/11/30 01:00:39;;;;;;;;;29.33;27.00;;;;;;;;5076788;27;45423;-68
2023/11/30 01:03:07;;;;;;;;;26.25;24.00;;;;;;;;5076869;28;45424;-68
2023/11/30 01:05:32;;;;;;;;;26.00;23.00;;;;;;;;5076489;28;46558;-68
2023/11/30 01:07:57;;;;;;;;;28.00;23.33;;;;;;;;5076903;28;45344;-70
2023/11/30 01:10:22;;;;;;;;;25.00;23.33;;;;;;;;5076746;28;45337;-70
2023/11/30 01:12:48;;;;;;;;;30.00;22.67;;;;;;;;5077106;27;45441;-70
2023/11/30 01:15:14;;;;;;;;;28.67;25.33;;;;;;;;5070731;27;47302;-68
2023/11/30 01:17:39;;;;;;;;;32.50;22.75;;;;;;;;5080226;27;45506;-69
2023/11/30 01:20:04;;;;;;;;;24.67;21.00;;;;;;;;5072451;27;45288;-67
2023/11/30 01:22:29;;;;;;;;;26.00;21.25;;;;;;;;5068304;28;45621;-68
2023/11/30 01:24:55;;;;;;;;;26.33;20.33;;;;;;;;5076716;27;45332;-70
2023/11/30 01:27:20;;;;;;;;;28.00;21.33;;;;;;;;5076554;28;45298;-68
2023/11/30 01:29:45;;;;;;;;;24.75;21.50;;;;;;;;5076201;28;45334;-67
2023/11/30 01:32:10;;;;;;;;;21.50;19.00;;;;;;;;5082466;27;45454;-67
2023/11/30 01:34:35;;;;;;;;;22.50;20.00;;;;;;;;5080058;27;45629;-69
2023/11/30 01:37:00;;;;;;;;;22.33;21.67;;;;;;;;5080821;27;45504;-67
2023/11/30 01:39:26;;;;;;;;;24.33;24.33;;;;;;;;5079472;28;45383;-70
2023/11/30 01:41:51;;;;;;;;;24.50;20.00;;;;;;;;5082157;27;45350;-66
2023/11/30 01:44:16;;;;;;;;;15.00;10.67;;;;;;;;5086542;27;46487;-70
2023/11/30 01:46:41;;;;;;;;;26.75;24.25;;;;;;;;5076103;28;45455;-71
2023/11/30 01:49:07;;;;;;;;;28.00;22.00;;;;;;;;5079839;27;45384;-68
2023/11/30 01:51:36;;;;;;;;;29.50;26.25;;;;;;;;5076758;27;45332;-68
2023/11/30 01:54:03;;;;;;;;;30.50;27.00;;;;;;;;5071451;28;47508;-69
2023/11/30 01:56:29;;;;;;;;;26.25;25.00;;;;;;;;5060271;28;45616;-71
2023/11/30 01:58:54;;;;;;;;;29.00;21.75;;;;;;;;5075425;28;45522;-69
2023/11/30 02:01:20;;;;;;;;;29.25;23.75;;;;;;;;5071499;28;45482;-68
2023/11/30 02:03:45;;;;;;;;;29.50;24.25;;;;;;;;5069808;28;45322;-71
2023/11/30 02:06:15;;;;;;;;;31.50;30.25;;;;;;;;5072042;27;45358;-68
2023/11/30 02:08:41;;;;;;;;;34.00;30.75;;;;;;;;5069246;28;45384;-67
2023/11/30 02:11:06;;;;;;;;;34.33;28.67;;;;;;;;5073424;27;45449;-69
2023/11/30 02:13:31;;;;;;;;;34.25;29.75;;;;;;;;5080770;27;46279;-70
2023/11/30 02:15:56;;;;;;;;;34.33;24.67;;;;;;;;5074779;28;45442;-67
2023/11/30 02:18:21;;;;;;;;;30.00;27.67;;;;;;;;5073438;28;45465;-69
2023/11/30 02:20:47;;;;;;;;;33.67;26.67;;;;;;;;5078454;27;45453;-68
2023/11/30 02:23:12;;;;;;;;;39.00;32.33;;;;;;;;5081603;27;46438;-67
2023/11/30 02:25:37;;;;;;;;;36.33;29.33;;;;;;;;5087456;27;45410;-70
2023/11/30 02:28:02;;;;;;;;;36.00;28.00;;;;;;;;5079231;28;45343;-69
2023/11/30 02:30:27;;;;;;;;;36.00;30.50;;;;;;;;5079002;28;45579;-67
2023/11/30 02:32:53;;;;;;;;;31.00;26.50;;;;;;;;5078898;27;46881;-69
2023/11/30 02:35:18;;;;;;;;;33.75;32.75;;;;;;;;5083269;27;45299;-68
2023/11/30 02:37:43;;;;;;;;;29.00;28.00;;;;;;;;5082742;27;45287;-70
2023/11/30 02:40:08;;;;;;;;;32.67;28.67;;;;;;;;5080092;27;45629;-69
2023/11/30 02:42:33;;;;;;;;;38.25;33.75;;;;;;;;5077848;28;46078;-70
2023/11/30 02:44:59;;;;;;;;;35.00;30.00;;;;;;;;5079079;28;45354;-69
2023/11/30 02:47:24;;;;;;;;;34.67;29.33;;;;;;;;5077531;27;45287;-68
2023/11/30 02:49:49;;;;;;;;;37.67;33.00;;;;;;;;5082409;27;45366;-67
2023/11/30 02:52:14;;;;;;;;;33.33;28.00;;;;;;;;5075129;28;46323;-68
2023/11/30 02:54:39;;;;;;;;;40.50;31.50;;;;;;;;5078219;28;45863;-68
2023/11/30 02:57:04;;;;;;;;;40.00;32.33;;;;;;;;5079268;27;45243;-68
2023/11/30 02:59:30;;;;;;;;;29.67;29.67;;;;;;;;5088017;27;45607;-68
2023/11/30 03:01:56;;;;;;;;;28.25;25.75;;;;;;;;5077990;28;45537;-68
2023/11/30 03:04:21;;;;;;;;;35.33;28.00;;;;;;;;5078653;27;45384;-66
2023/11/30 03:06:47;;;;;;;;;33.33;32.33;;;;;;;;5087035;27;45388;-68
2023/11/30 03:09:13;;;;;;;;;23.25;12.50;;;;;;;;5078044;28;45527;-69
2023/11/30 03:11:38;;;;;;;;;35.33;30.00;;;;;;;;5078046;28;45387;-69
2023/11/30 03:14:03;;;;;;;;;45.75;38.25;;;;;;;;5078588;28;45376;-68
2023/11/30 03:16:29;;;;;;;;;34.67;29.33;;;;;;;;5078550;27;45312;-67
2023/11/30 03:18:54;;;;;;;;;39.33;33.67;;;;;;;;5078556;27;45652;-68
2023/11/30 03:21:20;;;;;;;;;37.75;33.25;;;;;;;;5080368;27;45823;-68
2023/11/30 03:23:45;;;;;;;;;43.00;37.00;;;;;;;;5078354;27;45460;-68
2023/11/30 03:26:10;;;;;;;;;38.75;30.00;;;;;;;;5077935;28;45417;-68
2023/11/30 03:28:36;;;;;;;;;38.00;32.50;;;;;;;;5078516;28;45459;-70
2023/11/30 03:31:01;;;;;;;;;39.00;34.50;;;;;;;;5077960;28;47040;-70
2023/11/30 03:33:26;;;;;;;;;33.33;30.33;;;;;;;;5078265;27;45420;-67
2023/11/30 03:35:52;;;;;;;;;41.00;33.33;;;;;;;;5078703;27;45458;-70
2023/11/30 03:38:17;;;;;;;;;41.67;33.33;;;;;;;;5063635;28;45499;-67
2023/11/30 03:40:42;;;;;;;;;36.00;34.00;;;;;;;;5077189;28;45640;-67
2023/11/30 03:43:08;;;;;;;;;36.50;31.25;;;;;;;;5077597;28;45355;-70
2023/11/30 03:45:33;;;;;;;;;36.67;27.67;;;;;;;;5078092;28;45355;-68
2023/11/30 03:47:59;;;;;;;;;39.50;32.50;;;;;;;;5078670;27;45525;-68
2023/11/30 03:50:24;;;;;;;;;32.00;23.75;;;;;;;;5083539;27;45662;-67
2023/11/30 03:52:49;;;;;;;;;35.33;31.00;;;;;;;;5077606;27;45291;-69
2023/11/30 03:55:14;;;;;;;;;42.33;34.00;;;;;;;;5078214;28;45331;-71
2023/11/30 03:57:39;;;;;;;;;36.00;35.00;;;;;;;;5077808;28;45374;-69
2023/11/30 04:00:07;;;;;;;;;46.33;37.33;;;;;;;;5077792;28;46462;-70
2023/11/30 04:02:32;;;;;;;;;35.00;31.50;;;;;;;;5082936;27;45408;-68
2023/11/30 04:04:58;;;;;;;;;46.00;36.00;;;;;;;;5077953;28;45288;-69
2023/11/30 04:07:29;;;;;;;;;43.00;35.00;;;;;;;;5082169;27;45620;-70
2023/11/30 04:09:54;;;;;;;;;40.75;36.50;;;;;;;;5077627;28;45977;-68
2023/11/30 04:12:19;;;;;;;;;43.33;35.00;;;;;;;;5081967;27;45442;-67
2023/11/30 04:14:44;;;;;;;;;46.67;36.00;;;;;;;;5078482;27;45620;-68
2023/11/30 04:17:10;;;;;;;;;46.00;32.67;;;;;;;;5081301;27;45599;-68
2023/11/30 04:19:35;;;;;;;;;42.50;37.00;;;;;;;;5077208;28;46374;-69
2023/11/30 04:22:01;;;;;;;;;40.75;33.00;;;;;;;;5080879;27;45453;-68
2023/11/30 04:24:26;;;;;;;;;42.33;35.33;;;;;;;;5081188;27;45513;-67
2023/11/30 04:26:51;;;;;;;;;35.67;34.33;;;;;;;;5077303;28;45460;-68
2023/11/30 04:29:16;;;;;;;;;40.25;34.75;;;;;;;;5077368;27;46545;-67
2023/11/30 04:31:42;;;;;;;;;38.00;35.33;;;;;;;;5076776;28;45474;-68
2023/11/30 04:34:08;;;;;;;;;43.50;36.25;;;;;;;;5077512;28;45354;-68
2023/11/30 04:36:33;;;;;;;;;42.25;38.75;;;;;;;;5077199;28;45412;-67
2023/11/30 04:38:59;;;;;;;;;40.33;37.33;;;;;;;;5075888;28;45493;-67
2023/11/30 04:41:24;;;;;;;;;42.50;33.75;;;;;;;;5077037;27;45513;-67
2023/11/30 04:43:49;;;;;;;;;38.75;33.00;;;;;;;;5076225;28;45767;-71
2023/11/30 04:46:14;;;;;;;;;39.75;33.25;;;;;;;;5076814;28;45464;-70
2023/11/30 04:48:40;;;;;;;;;39.00;30.00;;;;;;;;5079087;27;45386;-67
2023/11/30 04:51:05;;;;;;;;;41.00;30.33;;;;;;;;5076175;27;45487;-68
2023/11/30 04:53:31;;;;;;;;;34.50;27.75;;;;;;;;5068660;28;45386;-68
2023/11/30 04:55:56;;;;;;;;;27.25;27.00;;;;;;;;5076748;28;45495;-68
2023/11/30 04:58:21;;;;;;;;;36.50;28.50;;;;;;;;5076180;27;45856;-69
2023/11/30 05:00:47;;;;;;;;;32.75;31.00;;;;;;;;5077132;27;45464;-70
2023/11/30 05:03:13;;;;;;;;;36.00;30.50;;;;;;;;5076894;28;45397;-71
2023/11/30 05:05:38;;;;;;;;;33.00;26.00;;;;;;;;5076630;27;45404;-68
2023/11/30 05:08:03;;;;;;;;;38.75;31.50;;;;;;;;5077150;28;45839;-67
2023/11/30 05:10:28;;;;;;;;;36.00;35.00;;;;;;;;5076376;28;45276;-68
2023/11/30 05:12:53;;;;;;;;;33.00;31.33;;;;;;;;5077032;28;45417;-67
2023/11/30 05:15:19;;;;;;;;;38.67;31.00;;;;;;;;5076391;27;45284;-69
2023/11/30 05:17:44;;;;;;;;;42.00;31.33;;;;;;;;5076307;28;45739;-70
2023/11/30 05:20:09;;;;;;;;;44.33;30.67;;;;;;;;5076444;27;45450;-68
2023/11/30 05:22:34;;;;;;;;;40.75;37.00;;;;;;;;5089769;27;45378;-68
2023/11/30 05:25:00;;;;;;;;;40.00;35.00;;;;;;;;5076841;27;45542;-69
2023/11/30 05:27:25;;;;;;;;;39.50;31.25;;;;;;;;5076581;28;45265;-68
2023/11/30 05:29:51;;;;;;;;;39.00;33.00;;;;;;;;5076120;28;45322;-68
2023/11/30 05:32:16;;;;;;;;;41.67;34.67;;;;;;;;5074860;27;45403;-68
2023/11/30 05:34:41;;;;;;;;;35.25;30.75;;;;;;;;5065593;27;46821;-68
2023/11/30 05:37:07;;;;;;;;;32.75;28.00;;;;;;;;5073320;27;45749;-68
2023/11/30 05:39:32;;;;;;;;;35.75;29.25;;;;;;;;5076060;27;46097;-67
2023/11/30 05:42:00;;;;;;;;;36.25;33.75;;;;;;;;5071903;28;45446;-70
2023/11/30 05:44:25;;;;;;;;;33.50;27.75;;;;;;;;5057231;28;45866;-70
2023/11/30 05:46:51;;;;;;;;;37.67;30.00;;;;;;;;5056087;28;46268;-68
2023/11/30 05:49:16;;;;;;;;;33.25;26.25;;;;;;;;5055724;28;45341;-68
2023/11/30 05:51:42;;;;;;;;;35.50;29.00;;;;;;;;5067249;28;45371;-70
2023/11/30 05:54:08;;;;;;;;;33.50;30.50;;;;;;;;5068226;28;45606;-68
2023/11/30 05:56:33;;;;;;;;;32.75;28.50;;;;;;;;5068958;28;46433;-70
2023/11/30 05:58:58;;;;;;;;;37.33;30.33;;;;;;;;5063387;28;45572;-69
2023/11/30 06:01:23;;;;;;;;;39.33;31.00;;;;;;;;5049821;28;45386;-69
2023/11/30 06:03:49;;;;;;;;;31.00;29.67;;;;;;;;5048079;28;45560;-68
2023/11/30 06:06:14;;;;;;;;;32.75;28.00;;;;;;;;5060724;28;45596;-68
2023/11/30 06:08:39;;;;;;;;;26.00;24.50;;;;;;;;5049477;28;45392;-67
2023/11/30 06:11:04;;;;;;;;;30.33;26.33;;;;;;;;5054416;28;45406;-67
2023/11/30 06:13:30;;;;;;;;;28.50;25.25;;;;;;;;5051220;28;45414;-67
2023/11/30 06:15:55;;;;;;;;;34.67;24.67;;;;;;;;5058856;28;46153;-70
2023/11/30 06:18:20;;;;;;;;;29.50;25.50;;;;;;;;5062422;28;45469;-67
2023/11/30 06:20:45;;;;;;;;;31.25;22.75;;;;;;;;5061908;28;45573;-67
2023/11/30 06:23:11;;;;;;;;;25.75;23.00;;;;;;;;5058255;28;45373;-68
2023/11/30 06:25:36;;;;;;;;;26.67;26.67;;;;;;;;5056411;28;46475;-67
2023/11/30 06:28:01;;;;;;;;;29.33;23.67;;;;;;;;5071537;28;46681;-67
2023/11/30 06:30:26;;;;;;;;;33.00;24.33;;;;;;;;5063070;28;45437;-67
2023/11/30 06:32:51;;;;;;;;;29.50;26.00;;;;;;;;5064003;28;45394;-67
2023/11/30 06:35:17;;;;;;;;;26.25;22.25;;;;;;;;5059887;28;45798;-67
2023/11/30 06:37:42;;;;;;;;;26.67;23.33;;;;;;;;5060343;28;45226;-67
2023/11/30 06:40:08;;;;;;;;;26.67;23.67;;;;;;;;5058753;28;45348;-68
2023/11/30 06:42:34;;;;;;;;;31.75;25.00;;;;;;;;5060212;28;46418;-66
2023/11/30 06:44:59;;;;;;;;;27.25;23.25;;;;;;;;5055947;28;47348;-67
2023/11/30 06:47:24;;;;;;;;;30.33;26.00;;;;;;;;5055553;28;45409;-67
2023/11/30 06:49:50;;;;;;;;;22.75;18.25;;;;;;;;5056333;28;45523;-67
2023/11/30 06:52:15;;;;;;;;;29.75;24.00;;;;;;;;5057442;28;45416;-68
2023/11/30 06:54:41;;;;;;;;;27.25;22.00;;;;;;;;5051805;28;46445;-66
2023/11/30 06:57:06;;;;;;;;;28.00;24.00;;;;;;;;5055117;28;45469;-69
2023/11/30 06:59:31;;;;;;;;;23.00;21.00;;;;;;;;5050409;28;45295;-71
2023/11/30 07:01:56;;;;;;;;;25.75;19.75;;;;;;;;5055317;28;45407;-67
2023/11/30 07:04:21;;;;;;;;;24.33;17.00;;;;;;;;5055587;28;46325;-67
2023/11/30 07:06:46;;;;;;;;;22.00;21.33;;;;;;;;5057998;28;45383;-67
2023/11/30 07:09:12;;;;;;;;;33.00;25.75;;;;;;;;5058130;28;45337;-68
2023/11/30 07:11:38;;;;;;;;;26.25;19.50;;;;;;;;5050634;28;45554;-68
2023/11/30 07:14:03;;;;;;;;;26.00;19.75;;;;;;;;5059016;28;45668;-69
2023/11/30 07:16:28;;;;;;;;;27.33;21.00;;;;;;;;5059161;28;45875;-69
2023/11/30 07:18:53;;;;;;;;;23.00;22.33;;;;;;;;5058909;28;45292;-68
2023/11/30 07:21:18;;;;;;;;;21.33;18.00;;;;;;;;5060650;28;45380;-68
2023/11/30 07:23:43;;;;;;;;;22.00;18.00;;;;;;;;5039185;28;46685;-68
2023/11/30 07:26:09;;;;;;;;;29.00;20.33;;;;;;;;5058622;28;45566;-68
2023/11/30 07:28:34;;;;;;;;;25.25;21.50;;;;;;;;5048989;28;45406;-68
2023/11/30 07:31:00;;;;;;;;;20.50;18.25;;;;;;;;5057633;28;45443;-68
2023/11/30 07:33:25;;;;;;;;;29.33;18.33;;;;;;;;5055729;28;45661;-69
2023/11/30 07:35:50;;;;;;;;;17.67;13.67;;;;;;;;5054523;28;45391;-68
2023/11/30 07:38:15;;;;;;;;;24.00;21.33;;;;;;;;5053931;28;45511;-67
2023/11/30 07:40:40;;;;;;;;;22.33;21.00;;;;;;;;5053121;28;45659;-69
2023/11/30 07:43:05;;;;;;;;;29.33;22.00;;;;;;;;5063067;28;46425;-69
2023/11/30 07:45:31;;;;;;;;;25.00;20.67;;;;;;;;5074791;28;45375;-68
2023/11/30 07:47:59;;;;;;;;;34.67;24.00;;;;;;;;5074015;27;45818;-68
2023/11/30 07:50:27;;;;;;;;;22.25;18.50;;;;;;;;5077535;27;45434;-69
2023/11/30 07:52:52;;;;;;;;;30.75;25.00;;;;;;;;5069536;27;47497;-67
2023/11/30 07:55:17;;;;;;;;;17.00;13.00;;;;;;;;5070751;27;45582;-69
2023/11/30 07:57:42;;;;;;;;;17.67;16.33;;;;;;;;5071207;27;45482;-68
2023/11/30 08:00:11;;;;;;;;;23.75;18.50;;;;;;;;5076254;27;45497;-68
2023/11/30 08:02:36;;;;;;;;;21.50;17.50;;;;;;;;5080759;27;46558;-68
2023/11/30 08:05:01;;;;;;;;;23.50;21.00;;;;;;;;5075781;27;46086;-68
2023/11/30 08:07:27;;;;;;;;;22.33;20.00;;;;;;;;5079526;27;45452;-68
2023/11/30 08:09:52;;;;;;;;;25.67;20.33;;;;;;;;5074362;28;45951;-68
2023/11/30 08:12:17;;;;;;;;;23.25;17.75;;;;;;;;5074016;27;47415;-68
2023/11/30 08:14:43;;;;;;;;;23.50;18.00;;;;;;;;5073580;28;45574;-68
2023/11/30 08:17:08;;;;;;;;;27.67;23.00;;;;;;;;5074814;27;45635;-68
2023/11/30 08:19:33;;;;;;;;;27.00;20.33;;;;;;;;5075083;27;45442;-70
2023/11/30 08:21:58;;;;;;;;;25.33;22.00;;;;;;;;5074784;27;45505;-69
2023/11/30 08:24:23;;;;;;;;;24.25;17.25;;;;;;;;5075476;27;45636;-68
2023/11/30 08:26:49;;;;;;;;;23.33;21.00;;;;;;;;5070628;27;45542;-68
2023/11/30 08:29:15;;;;;;;;;21.50;21.50;;;;;;;;5074291;27;45618;-68
2023/11/30 08:31:40;;;;;;;;;26.75;18.25;;;;;;;;5072351;28;47618;-69
2023/11/30 08:34:05;;;;;;;;;27.00;22.00;;;;;;;;5075884;27;45477;-68
2023/11/30 08:36:30;;;;;;;;;26.67;24.33;;;;;;;;5072522;27;45542;-69
2023/11/30 08:38:56;;;;;;;;;28.00;24.67;;;;;;;;5075127;27;45482;-70
2023/11/30 08:41:21;;;;;;;;;20.25;19.75;;;;;;;;5074024;28;47293;-70
2023/11/30 08:43:47;;;;;;;;;27.00;23.50;;;;;;;;5188427;22;45823;-70
2023/11/30 08:46:12;;;;;;;;;28.50;19.25;;;;;;;;5053311;28;45458;-70
2023/11/30 08:48:37;;;;;;;;;24.00;20.75;;;;;;;;5047159;28;45774;-68
2023/11/30 08:51:03;;;;;;;;;30.00;25.00;;;;;;;;5049072;28;45878;-69
2023/11/30 08:53:28;;;;;;;;;29.75;20.00;;;;;;;;5049561;28;45484;-68
2023/11/30 08:55:53;;;;;;;;;28.67;26.67;;;;;;;;5050660;28;45631;-69
2023/11/30 08:58:18;;;;;;;;;27.25;22.25;;;;;;;;5050933;28;45589;-69
2023/11/30 09:00:44;;;;;;;;;33.00;19.00;;;;;;;;5051178;28;45500;-68
2023/11/30 09:03:09;;;;;;;;;20.75;20.75;;;;;;;;5055711;28;45499;-70
2023/11/30 09:05:34;;;;;;;;;29.25;25.75;;;;;;;;5056398;28;45421;-69
2023/11/30 09:07:59;;;;;;;;;36.67;30.33;;;;;;;;5053064;28;45370;-70
2023/11/30 09:10:25;;;;;;;;;26.25;23.75;;;;;;;;5050782;28;46643;-70
2023/11/30 09:12:52;;;;;;;;;30.25;25.75;;;;;;;;5042480;28;45582;-69
2023/11/30 09:15:17;;;;;;;;;29.25;25.00;;;;;;;;5054401;28;45368;-70
2023/11/30 09:17:43;;;;;;;;;29.67;24.33;;;;;;;;5052712;28;45762;-70
2023/11/30 09:20:08;;;;;;;;;35.50;25.25;;;;;;;;5049200;28;45707;-69
2023/11/30 09:22:36;;;;;;;;;27.50;22.75;;;;;;;;5047263;28;45492;-69
2023/11/30 09:25:02;;;;;;;;;35.25;28.25;;;;;;;;5049098;28;45399;-69
2023/11/30 09:27:27;;;;;;;;;31.25;26.25;;;;;;;;5051889;28;45601;-69
2023/11/30 09:29:53;;;;;;;;;34.00;24.00;;;;;;;;5048264;28;47236;-69
2023/11/30 09:32:19;;;;;;;;;30.25;26.00;;;;;;;;5048692;28;45437;-69
2023/11/30 09:34:44;;;;;;;;;31.00;25.33;;;;;;;;5050658;28;45443;-69
2023/11/30 09:37:09;;;;;;;;;25.33;21.33;;;;;;;;5053656;28;45511;-69
2023/11/30 09:39:34;;;;;;;;;29.33;22.33;;;;;;;;5044103;28;45755;-70
2023/11/30 09:42:00;;;;;;;;;26.00;22.33;;;;;;;;5050596;28;45716;-68
2023/11/30 09:44:29;;;;;;;;;24.00;21.50;;;;;;;;5053074;28;45470;-69
2023/11/30 09:46:54;;;;;;;;;21.50;18.75;;;;;;;;5044954;28;45646;-70
2023/11/30 09:49:19;;;;;;;;;31.25;27.25;;;;;;;;5050298;28;46325;-70
2023/11/30 09:51:48;;;;;;;;;30.00;22.00;;;;;;;;5053731;28;45437;-70
2023/11/30 09:54:15;;;;;;;;;25.25;21.25;;;;;;;;5047943;28;46178;-69
2023/11/30 09:56:40;;;;;;;;;25.25;22.25;;;;;;;;5054198;28;45577;-70
2023/11/30 09:59:06;;;;;;;;;29.67;25.33;;;;;;;;5055531;28;46654;-71
2023/11/30 10:01:32;;;;;;;;;26.75;23.75;;;;;;;;5050787;28;46058;-69
2023/11/30 10:03:57;;;;;;;;;22.00;22.00;;;;;;;;5052833;28;45378;-69
2023/11/30 10:06:22;;;;;;;;;24.33;21.67;;;;;;;;5058259;28;45344;-70
2023/11/30 10:08:47;;;;;;;;;22.00;19.67;;;;;;;;5053122;28;46658;-69
2023/11/30 10:11:13;;;;;;;;;20.33;18.67;;;;;;;;5052571;28;45332;-69
2023/11/30 10:13:38;;;;;;;;;20.75;19.25;;;;;;;;5052214;28;45463;-69
2023/11/30 10:16:06;;;;;;;;;25.33;19.33;;;;;;;;5049256;28;45600;-69
2023/11/30 10:18:33;;;;;;;;;24.25;20.25;;;;;;;;5050742;28;46058;-69
2023/11/30 10:20:58;;;;;;;;;18.25;11.75;;;;;;;;5055665;28;45589;-69
2023/11/30 10:23:23;;;;;;;;;24.25;21.25;;;;;;;;5054711;28;45445;-69
2023/11/30 10:25:48;;;;;;;;;21.67;19.33;;;;;;;;5053968;28;45659;-68
2023/11/30 10:28:14;;;;;;;;;25.00;20.67;;;;;;;;5057210;28;47168;-69
2023/11/30 10:30:40;;;;;;;;;26.75;20.25;;;;;;;;5054765;28;45407;-70
2023/11/30 10:33:11;;;;;;;;;26.50;22.25;;;;;;;;5053414;28;45601;-68
2023/11/30 10:35:37;;;;;;;;;19.50;17.50;;;;;;;;5056635;28;45482;-69
2023/11/30 10:38:05;;;;;;;;;28.50;21.00;;;;;;;;5052653;28;45661;-69
2023/11/30 10:40:31;;;;;;;;;22.50;19.75;;;;;;;;5054084;28;45621;-69
2023/11/30 10:42:59;;;;;;;;;27.25;21.75;;;;;;;;5054555;28;45444;-69
2023/11/30 10:45:26;;;;;;;;;26.75;21.75;;;;;;;;5053919;28;45584;-71
2023/11/30 10:47:52;;;;;;;;;27.00;20.75;;;;;;;;5053203;28;46397;-70
2023/11/30 10:50:18;;;;;;;;;25.00;20.75;;;;;;;;5054729;28;45474;-69
2023/11/30 10:52:44;;;;;;;;;31.75;25.75;;;;;;;;5054173;28;45439;-69
2023/11/30 10:55:19;;;;;;;;;23.50;20.50;;;;;;;;5046198;28;45775;-69
2023/11/30 10:57:46;;;;;;;;;21.25;19.25;;;;;;;;5052143;28;46443;-69
2023/11/30 11:00:12;;;;;;;;;25.00;22.00;;;;;;;;5050681;28;45459;-69
2023/11/30 11:02:38;;;;;;;;;23.25;20.25;;;;;;;;5052211;28;45430;-69
2023/11/30 11:05:08;;;;;;;;;22.25;17.25;;;;;;;;5054807;28;45404;-68
2023/11/30 11:07:33;;;;;;;;;22.00;19.75;;;;;;;;5050966;28;45710;-69
2023/11/30 11:10:00;;;;;;;;;31.00;27.50;;;;;;;;5049470;28;45411;-70
2023/11/30 11:12:26;;;;;;;;;26.00;22.25;;;;;;;;5054049;28;46644;-69
2023/11/30 11:15:08;;;;;;;;;19.00;18.50;;;;;;;;5051299;28;45464;-69
2023/11/30 11:17:33;;;;;;;;;18.25;14.25;;;;;;;;5045159;28;46526;-69
2023/11/30 11:19:59;;;;;;;;;26.00;15.25;;;;;;;;5046476;28;46410;-69
2023/11/30 11:22:24;;;;;;;;;21.75;18.25;;;;;;;;5048968;28;45545;-69
2023/11/30 11:24:55;;;;;;;;;20.50;13.75;;;;;;;;5057011;28;45457;-69
2023/11/30 11:27:31;;;;;;;;;18.25;18.25;;;;;;;;5043718;28;46758;-70
2023/11/30 11:29:57;;;;;;;;;22.50;16.25;;;;;;;;5048626;28;45552;-70
2023/11/30 11:32:23;;;;;;;;;18.00;15.75;;;;;;;;5050495;28;45387;-70
2023/11/30 11:34:49;;;;;;;;;17.00;13.00;;;;;;;;5045221;28;45474;-71
2023/11/30 11:37:14;;;;;;;;;17.25;15.50;;;;;;;;5049800;28;45577;-72
2023/11/30 11:39:41;;;;;;;;;19.67;17.00;;;;;;;;5054600;28;45464;-73
2023/11/30 11:42:07;;;;;;;;;20.75;17.50;;;;;;;;5045223;28;45428;-71
2023/11/30 11:44:32;;;;;;;;;17.00;15.25;;;;;;;;5027576;28;45509;-72
2023/11/30 11:46:58;;;;;;;;;21.33;16.67;;;;;;;;5033277;28;45621;-73
2023/11/30 11:49:23;;;;;;;;;16.75;14.25;;;;;;;;5027408;28;45450;-74
2023/11/30 11:51:49;;;;;;;;;22.25;17.50;;;;;;;;5031391;28;46486;-72
2023/11/30 11:54:18;;;;;;;;;18.50;17.50;;;;;;;;5033525;28;45482;-71
2023/11/30 11:56:44;;;;;;;;;22.75;17.25;;;;;;;;5027931;28;46328;-71
2023/11/30 11:59:10;;;;;;;;;14.75;13.00;;;;;;;;5032301;28;45540;-71
2023/11/30 12:01:38;;;;;;;;;13.33;13.00;;;;;;;;5032587;28;45363;-72
2023/11/30 12:04:03;;;;;;;;;12.75;12.00;;;;;;;;5029953;28;45401;-72
2023/11/30 12:06:29;;;;;;;;;13.00;12.00;;;;;;;;5029944;28;46536;-70
2023/11/30 12:08:54;;;;;;;;;13.50;12.25;;;;;;;;5031379;28;45526;-71
2023/11/30 12:11:20;;;;;;;;;14.00;13.00;;;;;;;;5027467;28;45487;-71
2023/11/30 12:13:48;;;;;;;;;8.00;7.75;;;;;;;;5028383;28;45372;-70
2023/11/30 12:16:14;;;;;;;;;11.00;11.00;;;;;;;;5031313;28;47374;-70
2023/11/30 12:18:39;;;;;;;;;17.00;12.67;;;;;;;;5029076;28;45451;-71
2023/11/30 12:21:04;;;;;;;;;12.33;11.67;;;;;;;;5027391;28;45501;-70
2023/11/30 12:23:29;;;;;;;;;17.00;13.50;;;;;;;;5025249;28;45511;-72
2023/11/30 12:25:56;;;;;;;;;13.67;12.33;;;;;;;;5030334;28;47387;-70
2023/11/30 12:28:22;;;;;;;;;13.00;9.25;;;;;;;;5034082;28;45543;-70
2023/11/30 12:30:47;;;;;;;;;12.75;10.75;;;;;;;;5025410;28;45490;-69
2023/11/30 12:33:12;;;;;;;;;15.67;11.67;;;;;;;;5028611;28;45450;-70
2023/11/30 12:35:37;;;;;;;;;16.75;12.00;;;;;;;;5031979;28;45668;-71
2023/11/30 12:38:03;;;;;;;;;13.00;11.00;;;;;;;;5027707;28;45439;-69
2023/11/30 12:40:28;;;;;;;;;18.75;12.50;;;;;;;;5032072;28;45433;-70
2023/11/30 12:42:53;;;;;;;;;13.33;11.67;;;;;;;;5031337;28;45673;-69
2023/11/30 12:45:19;;;;;;;;;8.00;8.00;;;;;;;;5034024;28;46788;-69
2023/11/30 12:47:45;;;;;;;;;11.33;11.00;;;;;;;;5033984;28;45458;-69
2023/11/30 12:50:11;;;;;;;;;16.75;13.00;;;;;;;;5037313;28;45986;-69
2023/11/30 12:52:36;;;;;;;;;11.00;11.00;;;;;;;;5041544;28;45387;-69
2023/11/30 12:55:01;;;;;;;;;13.00;11.33;;;;;;;;5034359;28;45421;-69
2023/11/30 12:57:26;;;;;;;;;20.00;12.00;;;;;;;;5033648;28;45507;-70
2023/11/30 12:59:51;;;;;;;;;12.33;11.00;;;;;;;;5034841;28;45846;-70
2023/11/30 13:02:16;;;;;;;;;18.33;12.00;;;;;;;;5033759;28;45611;-68
2023/11/30 13:04:42;;;;;;;;;11.50;11.00;;;;;;;;5034665;28;46859;-68
2023/11/30 13:07:07;;;;;;;;;13.00;11.75;;;;;;;;5034605;28;45180;-70
2023/11/30 13:09:34;;;;;;;;;7.00;6.25;;;;;;;;5034880;28;45149;-69
2023/11/30 13:11:59;;;;;;;;;11.00;10.75;;;;;;;;5038234;28;47027;-69
2023/11/30 13:14:25;;;;;;;;;12.75;11.75;;;;;;;;5032894;28;45564;-69
2023/11/30 13:16:50;;;;;;;;;10.50;10.50;;;;;;;;5034768;28;45407;-70
2023/11/30 13:19:15;;;;;;;;;12.00;8.75;;;;;;;;5035094;28;45340;-68
2023/11/30 13:21:40;;;;;;;;;11.67;10.67;;;;;;;;5041132;28;45489;-68
2023/11/30 13:24:05;;;;;;;;;11.33;10.33;;;;;;;;5032176;28;47397;-68
2023/11/30 13:26:32;;;;;;;;;9.50;7.50;;;;;;;;5034942;28;47194;-68
2023/11/30 13:28:57;;;;;;;;;11.25;8.50;;;;;;;;5037930;28;45536;-68
2023/11/30 13:31:22;;;;;;;;;7.00;7.00;;;;;;;;5038337;28;45416;-69
2023/11/30 13:33:48;;;;;;;;;12.67;8.00;;;;;;;;5037527;28;45738;-68
2023/11/30 13:36:13;;;;;;;;;9.00;8.00;;;;;;;;5037339;28;45670;-73
2023/11/30 13:38:39;;;;;;;;;9.50;8.25;;;;;;;;5037608;28;45544;-73
2023/11/30 13:41:06;;;;;;;;;8.50;7.00;;;;;;;;5036750;28;45470;-73
2023/11/30 13:43:31;;;;;;;;;8.00;7.00;;;;;;;;5037250;28;46106;-72
2023/11/30 13:45:56;;;;;;;;;9.67;8.00;;;;;;;;5038382;28;45418;-74
2023/11/30 13:48:21;;;;;;;;;9.00;6.00;;;;;;;;5037440;28;46564;-73
2023/11/30 13:50:46;;;;;;;;;9.67;8.67;;;;;;;;5038540;28;45364;-73
2023/11/30 13:53:15;;;;;;;;;8.00;6.25;;;;;;;;5019173;28;46295;-74
2023/11/30 13:55:42;;;;;;;;;11.25;8.00;;;;;;;;5039301;28;45467;-73
2023/11/30 13:58:10;;;;;;;;;6.75;6.75;;;;;;;;5037973;28;45551;-72
2023/11/30 14:00:35;;;;;;;;;7.50;7.00;;;;;;;;5041073;28;45720;-73
2023/11/30 14:03:01;;;;;;;;;10.00;7.75;;;;;;;;5043664;28;47646;-72
2023/11/30 14:05:27;;;;;;;;;3.00;3.00;;;;;;;;5033230;28;45438;-71
2023/11/30 14:07:52;;;;;;;;;9.25;8.00;;;;;;;;5037428;28;45315;-71